This is the latest recevied weather packets stored in our database for station/object DC4XK-10. If no packets are shown the sender has not sent any weather packets the latest 10 day(s).
| Time | Temp. | Humidity | Pressure | Rain* | Wind** | Luminosity | Snow |
|---|---|---|---|---|---|---|---|
| 1777726732 | 26.67° C | 30% | 1014.3 hPa | 0 mm | 2.68 m/s, 206° | - | - |
| 1777726131 | 26.67° C | 33% | 1014.5 hPa | 0 mm | 1.34 m/s, 189° | - | - |
| 1777725531 | 25.56° C | 33% | 1014.6 hPa | 0 mm | 1.34 m/s, 181° | - | - |
| 1777724931 | 25.56° C | 35% | 1014.4 hPa | 0 mm | 0 m/s | - | - |
| 1777724331 | 25.56° C | 35% | 1015 hPa | 0 mm | 1.79 m/s, 163° | - | - |
| 1777723731 | 25.56° C | 36% | 1014.8 hPa | 0 mm | 0.89 m/s, 215° | - | - |
| 1777723131 | 25° C | 38% | 1014.8 hPa | 0 mm | 0 m/s | - | - |
| 1777722530 | 25° C | 35% | 1015.2 hPa | 0 mm | 1.79 m/s, 215° | - | - |
| 1777721932 | 24.44° C | 34% | 1015.6 hPa | 0 mm | 4.47 m/s, 185° | - | - |
| 1777721331 | 25° C | 35% | 1015.6 hPa | 0 mm | 3.13 m/s, 190° | - | - |
| 1777720731 | 24.44° C | 36% | 1015.6 hPa | 0 mm | 2.24 m/s, 352° | - | - |
| 1777720133 | 23.89° C | 37% | 1015.8 hPa | 0 mm | 3.13 m/s, 236° | - | - |
| 1777719530 | 24.44° C | 38% | 1015.8 hPa | 0 mm | 0.45 m/s, 219° | - | - |
| 1777718931 | 23.89° C | 38% | 1016.2 hPa | 0 mm | 0.45 m/s, 218° | - | - |
| 1777718334 | 23.89° C | 39% | 1016.2 hPa | 0 mm | 1.79 m/s, 144° | - | - |
| 1777717731 | 23.33° C | 41% | 1016 hPa | 0 mm | 0.89 m/s, 206° | - | - |
| 1777717131 | 23.33° C | 43% | 1016.3 hPa | 0 mm | 0.89 m/s, 233° | - | - |
| 1777716532 | 22.78° C | 43% | 1016.6 hPa | 0 mm | 0.89 m/s, 190° | - | - |
| 1777715931 | 22.78° C | 45% | 1016.6 hPa | 0 mm | 0.89 m/s, 173° | - | - |
| 1777715331 | 22.78° C | 44% | 1016.6 hPa | 0 mm | 2.24 m/s, 197° | - | - |
| 1777714731 | 22.22° C | 45% | 1016.4 hPa | 0 mm | 0.45 m/s, 187° | - | - |
| 1777714131 | 22.78° C | 45% | 1016.8 hPa | 0 mm | 1.79 m/s, 213° | - | - |
| 1777713531 | 22.22° C | 46% | 1016.9 hPa | 0 mm | 2.68 m/s, 192° | - | - |
| 1777712931 | 21.67° C | 47% | 1017 hPa | 0 mm | 2.24 m/s, 145° | - | - |
| 1777712331 | 21.11° C | 47% | 1017.2 hPa | 0 mm | 3.13 m/s, 221° | - | - |
* Rain latest hour (hover to see other rain measurements)
** Current wind speed in m/s (hover to see current wind gust speed)